Time;durP1;ratioP1;P1;durP2;ratioP2;P2;SDS_P1;SDS_P2;PMS_P1;PMS_P2;Temp;Humidity;BMP_temperature;BMP_pressure;BME280_temperature;BME280_humidity;BME280_pressure;Samples;Min_cycle;Max_cycle;Signal;HPM_P1;HPM_P2
2023/05/23 00:01:49;;;;;;;6.70;6.10;;;22.90;93.30;;;;;;5007390;28;20419;-95
2023/05/23 00:04:18;;;;;;;8.43;6.47;;;22.90;93.30;;;;;;5040128;28;20435;-94
2023/05/23 00:06:45;;;;;;;7.47;6.77;;;22.90;93.30;;;;;;5024044;28;20423;-95
2023/05/23 00:09:46;;;;;;;7.53;6.83;;;22.80;93.20;;;;;;5030494;28;20458;-94
2023/05/23 00:12:29;;;;;;;7.03;6.33;;;22.80;93.20;;;;;;5024922;28;20744;-96
2023/05/23 00:15:00;;;;;;;7.00;5.90;;;22.80;93.20;;;;;;5008453;28;20410;-94
2023/05/23 00:18:23;;;;;;;6.97;6.10;;;22.80;93.20;;;;;;5024347;28;20419;-94
2023/05/23 00:20:57;;;;;;;6.27;5.77;;;22.80;93.20;;;;;;5023988;28;20440;-94
2023/05/23 00:23:34;;;;;;;6.23;5.63;;;22.70;93.20;;;;;;5040477;28;20397;-94
2023/05/23 00:26:23;;;;;;;7.30;6.10;;;22.70;93.20;;;;;;5005275;28;20484;-94
2023/05/23 00:28:54;;;;;;;6.13;5.63;;;22.70;93.20;;;;;;5007189;28;20458;-95
2023/05/23 00:31:25;;;;;;;6.00;5.23;;;22.70;93.20;;;;;;5007052;28;20879;-95
2023/05/23 00:33:56;;;;;;;6.13;5.63;;;22.70;93.20;;;;;;5023417;28;20411;-96
2023/05/23 00:36:40;;;;;;;6.53;5.93;;;22.60;93.10;;;;;;5037674;28;20453;-94
2023/05/23 00:39:17;;;;;;;6.63;5.53;;;22.60;93.10;;;;;;5020183;28;20494;-95
2023/05/23 00:41:57;;;;;;;5.83;5.33;;;22.60;93.00;;;;;;5020225;28;20458;-95
2023/05/23 00:44:33;;;;;;;6.90;5.27;;;22.60;93.00;;;;;;5019473;28;20453;-95
2023/05/23 00:46:59;;;;;;;5.43;4.93;;;22.60;93.00;;;;;;5036259;28;20929;-95
2023/05/23 00:49:26;;;;;;;6.40;5.73;;;22.50;92.90;;;;;;5019572;28;20470;-94
2023/05/23 00:52:00;;;;;;;4.97;4.57;;;22.50;92.90;;;;;;5003936;28;20427;-94
2023/05/23 00:54:42;;;;;;;5.37;4.87;;;22.50;92.90;;;;;;5019356;28;20477;-94
2023/05/23 00:57:33;;;;;;;5.17;4.73;;;22.50;92.90;;;;;;5019809;28;20425;-93
2023/05/23 01:00:11;;;;;;;5.13;4.73;;;22.50;93.00;;;;;;5018959;28;20496;-95
2023/05/23 01:03:07;;;;;;;5.50;5.00;;;22.50;93.00;;;;;;5006931;28;20458;-94
2023/05/23 01:05:36;;;;;;;5.43;4.90;;;22.40;92.90;;;;;;5019003;28;20790;-95
2023/05/23 01:08:22;;;;;;;5.30;4.80;;;22.40;92.90;;;;;;5019419;28;20500;-95
2023/05/23 01:11:24;;;;;;;5.00;4.60;;;22.40;92.90;;;;;;5019035;28;20428;-94
2023/05/23 01:14:06;;;;;;;5.10;4.60;;;22.40;92.90;;;;;;5019034;28;20919;-94
2023/05/23 01:17:17;;;;;;;;;;;;;;;;;;;;;
2023/05/23 01:20:03;;;;;;;7.40;5.27;;;22.40;92.90;;;;;;5018777;28;20475;-94
2023/05/23 01:23:03;;;;;;;6.07;5.00;;;22.40;92.90;;;;;;5018740;28;20511;-95
2023/05/23 01:25:59;;;;;;;4.77;4.30;;;22.40;93.00;;;;;;5018786;28;20462;-94
2023/05/23 01:28:36;;;;;;;4.50;4.10;;;22.30;92.90;;;;;;5019118;28;20428;-94
2023/05/23 01:31:09;;;;;;;4.83;4.40;;;22.30;92.90;;;;;;5018846;28;20447;-94
2023/05/23 01:33:43;;;;;;;5.37;4.30;;;22.30;92.90;;;;;;5019106;28;20426;-94
2023/05/23 01:36:13;;;;;;;4.60;4.10;;;22.30;92.90;;;;;;5018775;28;20783;-94
2023/05/23 01:38:42;;;;;;;4.60;4.20;;;22.30;92.90;;;;;;5018732;28;20791;-95
2023/05/23 01:41:17;;;;;;;4.43;4.03;;;22.30;92.90;;;;;;5035141;28;20477;-94
2023/05/23 01:43:49;;;;;;;4.53;4.17;;;22.20;92.80;;;;;;5018973;28;20489;-95
2023/05/23 01:46:33;;;;;;;4.97;4.47;;;22.20;92.80;;;;;;4994047;28;20507;-95
2023/05/23 01:49:10;;;;;;;4.60;4.20;;;22.20;92.80;;;;;;4994935;28;20452;-95
2023/05/23 01:51:40;;;;;;;4.80;4.33;;;22.20;92.80;;;;;;4947705;28;20503;-93
2023/05/23 01:54:33;;;;;;;4.60;4.20;;;22.20;92.90;;;;;;4965211;28;20438;-95
2023/05/23 01:57:00;;;;;;;5.20;4.57;;;22.20;93.20;;;;;;4963088;28;20406;-95
2023/05/23 02:00:07;;;;;;;6.13;4.53;;;22.20;92.80;;;;;;4978470;28;20481;-95
2023/05/23 02:02:39;;;;;;;5.40;4.90;;;22.20;92.90;;;;;;5010179;28;20448;-94
2023/05/23 02:05:06;;;;;;;5.40;4.90;;;22.10;92.80;;;;;;4994900;28;20432;-94
2023/05/23 02:07:32;;;;;;;4.70;4.30;;;22.10;92.90;;;;;;4946410;28;20549;-93
2023/05/23 02:09:58;;;;;;;4.37;4.03;;;22.10;92.90;;;;;;4985306;28;20529;-94
2023/05/23 02:12:29;;;;;;;5.80;4.90;;;22.10;92.90;;;;;;5002374;28;20767;-94
2023/05/23 02:14:55;;;;;;;4.77;4.30;;;22.10;92.90;;;;;;5018821;28;20443;-93
2023/05/23 02:17:27;;;;;;;5.20;4.70;;;22.10;92.90;;;;;;5035267;28;20411;-93
2023/05/23 02:20:07;;;;;;;5.20;4.70;;;22.10;92.80;;;;;;5018113;28;20478;-94
2023/05/23 02:22:34;;;;;;;5.73;4.70;;;22.00;92.80;;;;;;5034780;28;20404;-94
2023/05/23 02:25:00;;;;;;;6.53;4.37;;;22.00;92.80;;;;;;5018961;28;20430;-94
2023/05/23 02:27:28;;;;;;;5.10;3.97;;;22.00;92.80;;;;;;5018486;28;20773;-94
2023/05/23 02:29:55;;;;;;;4.87;4.47;;;22.00;92.80;;;;;;5018619;28;20518;-95
2023/05/23 02:32:26;;;;;;;5.47;4.87;;;22.00;92.80;;;;;;5018829;28;20824;-94
2023/05/23 02:34:52;;;;;;;7.27;5.10;;;22.00;92.80;;;;;;5004131;28;20419;-95
2023/05/23 02:37:18;;;;;;;5.13;4.73;;;22.00;92.80;;;;;;5021917;28;20422;-95
2023/05/23 02:39:50;;;;;;;6.53;4.93;;;21.90;92.80;;;;;;5021544;28;20492;-94
2023/05/23 02:42:16;;;;;;;6.30;4.90;;;21.90;92.80;;;;;;5022025;28;20427;-95
2023/05/23 02:44:45;;;;;;;5.80;4.83;;;21.90;92.80;;;;;;5005195;28;20458;-94
2023/05/23 02:47:11;;;;;;;10.33;4.97;;;21.90;92.80;;;;;;5038230;28;20545;-93
2023/05/23 02:49:37;;;;;;;5.97;4.90;;;21.90;92.80;;;;;;5021473;28;20915;-94
2023/05/23 02:52:03;;;;;;;6.13;4.83;;;21.90;92.80;;;;;;5021472;28;20465;-94
2023/05/23 02:54:29;;;;;;;5.37;4.63;;;21.90;92.90;;;;;;5021541;28;20419;-94
2023/05/23 02:56:55;;;;;;;7.63;4.80;;;21.90;92.90;;;;;;5021559;28;20439;-94
2023/05/23 02:59:22;;;;;;;5.33;4.83;;;21.80;92.80;;;;;;5021242;28;20498;-92
2023/05/23 03:01:53;;;;;;;5.00;4.47;;;21.80;92.80;;;;;;5038801;28;20418;-95
2023/05/23 03:04:22;;;;;;;5.13;4.53;;;21.80;92.80;;;;;;5025240;28;20454;-93
2023/05/23 03:06:48;;;;;;;6.00;5.40;;;21.80;92.80;;;;;;5027807;28;20445;-94
2023/05/23 03:09:17;;;;;;;6.57;5.10;;;21.80;92.90;;;;;;5044265;28;20491;-93
2023/05/23 03:11:53;;;;;;;6.07;5.00;;;21.80;92.90;;;;;;5046490;28;20439;-94
2023/05/23 03:14:22;;;;;;;4.87;4.47;;;21.80;92.90;;;;;;5060984;28;20417;-94
2023/05/23 03:16:48;;;;;;;5.77;4.40;;;21.70;92.80;;;;;;5044154;28;20479;-95
2023/05/23 03:19:18;;;;;;;5.13;4.63;;;21.70;92.80;;;;;;5027646;28;20480;-93
2023/05/23 03:21:51;;;;;;;5.77;4.67;;;21.70;92.90;;;;;;5061040;28;20428;-95
2023/05/23 03:24:17;;;;;;;6.50;5.40;;;21.70;92.90;;;;;;5027661;28;20793;-93
2023/05/23 03:26:46;;;;;;;6.43;5.70;;;21.70;92.90;;;;;;5060496;28;20433;-93
2023/05/23 03:29:15;;;;;;;7.37;5.13;;;21.70;92.90;;;;;;5028074;28;20457;-94
2023/05/23 03:31:43;;;;;;;5.93;5.10;;;21.70;92.90;;;;;;5027914;28;20433;-94
2023/05/23 03:34:18;;;;;;;6.00;5.10;;;21.70;92.90;;;;;;5027532;28;20479;-94
2023/05/23 03:36:46;;;;;;;6.80;5.60;;;21.60;92.90;;;;;;5027899;28;20499;-94
2023/05/23 03:39:20;;;;;;;6.03;5.10;;;21.60;92.90;;;;;;5026849;28;20579;-94
2023/05/23 03:41:48;;;;;;;6.77;5.30;;;21.60;92.90;;;;;;5028117;28;20456;-93
2023/05/23 03:44:15;;;;;;;8.83;5.80;;;21.60;92.90;;;;;;5027494;28;20504;-94
2023/05/23 03:46:41;;;;;;;6.10;4.93;;;21.60;92.90;;;;;;5042976;28;20545;-92
2023/05/23 03:49:07;;;;;;;6.10;4.47;;;21.60;92.80;;;;;;5027292;28;20439;-94
2023/05/23 03:51:38;;;;;;;5.13;4.40;;;21.60;92.80;;;;;;5043777;28;20433;-95
2023/05/23 03:54:07;;;;;;;5.40;4.90;;;21.60;92.80;;;;;;5060067;28;20533;-94
2023/05/23 03:56:36;;;;;;;6.20;4.70;;;21.60;92.80;;;;;;5043448;28;20466;-94
2023/05/23 03:59:03;;;;;;;5.40;4.80;;;21.50;92.80;;;;;;5026662;28;20478;-95
2023/05/23 04:01:31;;;;;;;7.53;5.10;;;21.50;92.80;;;;;;5027121;28;20418;-92
2023/05/23 04:03:59;;;;;;;5.73;5.03;;;21.50;92.80;;;;;;5027161;28;20445;-94
2023/05/23 04:06:30;;;;;;;5.10;4.47;;;21.50;92.80;;;;;;5059479;28;20510;-93
2023/05/23 04:09:02;;;;;;;5.00;4.60;;;21.50;92.80;;;;;;5026531;28;20432;-93
2023/05/23 04:11:32;;;;;;;5.27;4.63;;;21.50;92.80;;;;;;5027595;28;20428;-94
2023/05/23 04:14:04;;;;;;;6.23;4.40;;;21.50;92.80;;;;;;5026953;28;20425;-94
2023/05/23 04:16:32;;;;;;;5.33;4.83;;;21.50;92.80;;;;;;5042978;28;20456;-94
2023/05/23 04:19:03;;;;;;;6.10;5.00;;;21.40;92.80;;;;;;5042740;28;20563;-93
2023/05/23 04:21:30;;;;;;;5.30;4.50;;;21.40;92.80;;;;;;5043004;28;20504;-93
2023/05/23 04:24:16;;;;;;;5.33;4.83;;;21.50;92.80;;;;;;5045486;28;20488;-93
2023/05/23 04:26:42;;;;;;;6.37;4.83;;;21.40;92.80;;;;;;5042689;28;20492;-93
2023/05/23 04:29:11;;;;;;;6.20;4.70;;;21.40;92.80;;;;;;5059252;28;20547;-91
2023/05/23 04:32:02;;;;;;;5.10;4.63;;;21.40;92.80;;;;;;5062051;28;20547;-92
2023/05/23 04:34:29;;;;;;;6.00;4.70;;;21.40;92.90;;;;;;5028891;28;20420;-93
2023/05/23 04:37:01;;;;;;;6.40;5.17;;;21.40;92.90;;;;;;5043189;28;20470;-94
2023/05/23 04:39:28;;;;;;;6.27;5.37;;;21.40;92.90;;;;;;5076305;28;20781;-93
2023/05/23 04:42:26;;;;;;;7.23;5.40;;;21.30;92.90;;;;;;5046923;28;20520;-94
2023/05/23 04:45:02;;;;;;;7.47;5.37;;;21.30;92.90;;;;;;5028161;28;20496;-93
2023/05/23 04:47:53;;;;;;;6.63;5.60;;;21.30;92.90;;;;;;5059121;28;20422;-95
2023/05/23 04:50:41;;;;;;;5.10;4.60;;;21.30;93.00;;;;;;5042691;28;20448;-95
2023/05/23 04:53:10;;;;;;;6.27;5.67;;;21.30;93.00;;;;;;5042998;28;20444;-94
2023/05/23 04:55:40;;;;;;;7.33;4.93;;;21.20;93.00;;;;;;5025833;28;20464;-94
2023/05/23 04:58:11;;;;;;;6.00;4.90;;;21.30;93.10;;;;;;5058911;28;20560;-94
2023/05/23 05:00:38;;;;;;;9.37;5.80;;;21.20;93.00;;;;;;5043160;28;20575;-92
2023/05/23 05:03:05;;;;;;;7.07;4.70;;;21.20;93.00;;;;;;5043376;28;20797;-94
2023/05/23 05:05:34;;;;;;;7.10;5.10;;;21.20;93.00;;;;;;5042265;28;20444;-93
2023/05/23 05:08:06;;;;;;;5.43;4.93;;;21.20;93.10;;;;;;5042132;28;20424;-93
2023/05/23 05:10:34;;;;;;;6.93;5.50;;;21.20;93.10;;;;;;5026650;28;20415;-93
2023/05/23 05:13:02;;;;;;;6.03;5.43;;;21.20;93.10;;;;;;5041973;28;20889;-93
2023/05/23 05:15:36;;;;;;;9.43;6.20;;;21.20;93.10;;;;;;5041666;28;20987;-93
2023/05/23 05:18:02;;;;;;;6.33;5.10;;;21.20;93.20;;;;;;5052067;28;20456;-85
2023/05/23 05:20:29;;;;;;;5.37;4.87;;;21.20;93.20;;;;;;5020861;28;20429;-86
2023/05/23 05:22:56;;;;;;;6.53;5.63;;;21.20;93.20;;;;;;5021232;28;20544;-86
2023/05/23 05:25:23;;;;;;;6.67;5.70;;;21.20;93.20;;;;;;5037277;28;20487;-84
2023/05/23 05:27:51;;;;;;;7.30;5.50;;;21.10;93.20;;;;;;5037387;28;20453;-85
2023/05/23 05:30:19;;;;;;;6.97;5.57;;;21.10;93.20;;;;;;5004944;28;20494;-84
2023/05/23 05:32:50;;;;;;;6.83;5.50;;;21.10;93.20;;;;;;5020894;28;20435;-85
2023/05/23 05:35:18;;;;;;;8.47;5.70;;;21.10;93.20;;;;;;5004987;28;20474;-85
2023/05/23 05:37:47;;;;;;;9.60;5.83;;;21.10;93.20;;;;;;5036873;28;20484;-84
2023/05/23 05:40:15;;;;;;;6.33;5.53;;;21.10;93.20;;;;;;5021063;28;20453;-85
2023/05/23 05:42:42;;;;;;;6.17;5.47;;;21.10;93.20;;;;;;5020771;28;20934;-85
2023/05/23 05:45:10;;;;;;;6.87;6.03;;;21.10;93.30;;;;;;5020983;28;20414;-85
2023/05/23 05:47:39;;;;;;;8.03;6.10;;;21.10;93.30;;;;;;5037448;28;20516;-84
2023/05/23 05:50:09;;;;;;;6.27;5.70;;;21.10;93.30;;;;;;5020930;28;20461;-84
2023/05/23 05:52:38;;;;;;;6.93;5.20;;;21.10;93.40;;;;;;5054480;28;20434;-86
2023/05/23 05:55:06;;;;;;;9.30;5.43;;;21.00;93.30;;;;;;5036920;28;20445;-85
2023/05/23 05:57:37;;;;;;;5.90;5.27;;;21.00;93.30;;;;;;5037342;28;20418;-85
2023/05/23 06:00:12;;;;;;;8.17;5.70;;;21.00;93.30;;;;;;5004366;28;20721;-85
2023/05/23 06:02:50;;;;;;;9.47;5.93;;;21.00;93.40;;;;;;5021534;28;20440;-84
2023/05/23 06:05:25;;;;;;;11.00;6.40;;;21.00;93.40;;;;;;5020691;28;20471;-85
2023/05/23 06:07:51;;;;;;;8.80;5.93;;;21.00;93.40;;;;;;5020699;28;20439;-85
2023/05/23 06:10:17;;;;;;;7.17;6.20;;;21.00;93.40;;;;;;5022645;28;20500;-84
2023/05/23 06:12:44;;;;;;;8.20;6.20;;;21.00;93.40;;;;;;5057223;28;20404;-85
2023/05/23 06:15:13;;;;;;;6.07;5.47;;;21.00;93.40;;;;;;5040630;28;20422;-85
2023/05/23 06:17:39;;;;;;;7.00;5.93;;;21.00;93.40;;;;;;5024313;28;20452;-86
2023/05/23 06:20:08;;;;;;;6.30;5.53;;;21.00;93.40;;;;;;5024127;28;20418;-84
2023/05/23 06:22:37;;;;;;;7.00;6.30;;;20.90;93.40;;;;;;5057335;28;20398;-84
2023/05/23 06:25:05;;;;;;;9.50;7.63;;;20.90;93.40;;;;;;5024257;28;20424;-85
2023/05/23 06:27:31;;;;;;;10.40;8.13;;;20.90;93.40;;;;;;5024186;28;20424;-84
2023/05/23 06:30:02;;;;;;;10.00;6.67;;;20.90;93.40;;;;;;5024083;28;20480;-85
2023/05/23 06:32:28;;;;;;;9.80;8.40;;;20.90;93.40;;;;;;5040152;28;20456;-85
2023/05/23 06:34:56;;;;;;;11.10;8.47;;;20.90;93.30;;;;;;5017452;28;20779;-86
2023/05/23 06:37:22;;;;;;;9.83;8.13;;;20.90;93.30;;;;;;5020589;28;20488;-85
2023/05/23 06:39:51;;;;;;;12.20;8.97;;;20.90;93.30;;;;;;5004678;28;20437;-85
2023/05/23 06:42:17;;;;;;;11.40;9.00;;;20.80;93.30;;;;;;5020522;28;20449;-85
2023/05/23 06:45:05;;;;;;;12.47;9.27;;;20.80;93.20;;;;;;5020455;28;20490;-85
2023/05/23 06:47:34;;;;;;;9.80;8.63;;;20.90;93.30;;;;;;5004344;28;20437;-85
2023/05/23 06:50:02;;;;;;;10.40;8.80;;;20.80;93.20;;;;;;4988058;28;20537;-86
2023/05/23 06:52:28;;;;;;;10.83;9.27;;;20.80;93.20;;;;;;5003738;28;20485;-86
2023/05/23 06:54:56;;;;;;;8.63;7.50;;;20.80;93.20;;;;;;5003782;28;20445;-85
2023/05/23 06:57:22;;;;;;;8.77;7.93;;;20.80;93.20;;;;;;5020126;28;20413;-85
2023/05/23 06:59:51;;;;;;;9.43;8.27;;;20.80;93.20;;;;;;5036595;28;20443;-85
2023/05/23 07:02:16;;;;;;;10.13;8.40;;;20.80;93.20;;;;;;5020235;28;20436;-86
2023/05/23 07:04:43;;;;;;;9.67;7.67;;;20.80;93.20;;;;;;5003979;28;20418;-85
2023/05/23 07:07:18;;;;;;;8.20;7.40;;;20.80;93.20;;;;;;5004911;28;20463;-85
2023/05/23 07:09:44;;;;;;;14.50;7.17;;;20.70;93.10;;;;;;4987248;28;20554;-85
2023/05/23 07:12:15;;;;;;;12.10;7.77;;;20.70;93.10;;;;;;5004234;28;20452;-84
2023/05/23 07:14:43;;;;;;;7.97;6.87;;;20.70;93.10;;;;;;5036398;28;20414;-84
2023/05/23 07:17:10;;;;;;;9.00;7.80;;;20.70;93.10;;;;;;4987569;28;20480;-84
2023/05/23 07:19:37;;;;;;;9.83;8.67;;;20.70;93.10;;;;;;5004035;28;20747;-84
2023/05/23 07:22:07;;;;;;;9.80;8.33;;;20.70;93.10;;;;;;4986423;28;20445;-86
2023/05/23 07:24:36;;;;;;;11.43;10.10;;;20.70;93.10;;;;;;4987927;28;20475;-84
2023/05/23 07:27:05;;;;;;;13.20;9.10;;;20.70;93.10;;;;;;5019930;28;20427;-84
2023/05/23 07:29:31;;;;;;;10.27;8.63;;;20.70;93.10;;;;;;5003234;28;20843;-85
2023/05/23 07:31:58;;;;;;;9.80;8.30;;;20.70;93.10;;;;;;5003070;28;20430;-85
2023/05/23 07:34:25;;;;;;;11.27;8.90;;;20.70;93.10;;;;;;5019583;28;20449;-84
2023/05/23 07:36:56;;;;;;;12.10;10.43;;;20.70;93.10;;;;;;5003301;28;20428;-84
2023/05/23 07:39:26;;;;;;;13.17;10.07;;;20.70;93.10;;;;;;4987367;28;20768;-85
2023/05/23 07:41:58;;;;;;;12.27;10.53;;;20.60;93.00;;;;;;5019508;28;20891;-84
2023/05/23 07:44:24;;;;;;;12.47;11.17;;;20.70;93.10;;;;;;5002932;28;20495;-84
2023/05/23 07:46:53;;;;;;;14.83;11.87;;;20.70;93.10;;;;;;5002846;28;20449;-83
2023/05/23 07:49:21;;;;;;;15.57;12.40;;;20.70;93.10;;;;;;5019149;28;20563;-85
2023/05/23 07:51:47;;;;;;;17.70;12.83;;;20.60;93.00;;;;;;4986898;28;20465;-84
2023/05/23 07:54:13;;;;;;;18.90;12.83;;;20.60;93.00;;;;;;5002833;28;20729;-84
2023/05/23 07:56:43;;;;;;;17.60;12.73;;;20.60;93.00;;;;;;5019945;28;20432;-84
2023/05/23 07:59:08;;;;;;;15.40;12.60;;;20.60;93.00;;;;;;4986522;28;20419;-86
2023/05/23 08:01:35;;;;;;;16.83;12.67;;;20.60;93.00;;;;;;4986521;28;20240;-85
2023/05/23 08:04:06;;;;;;;15.50;11.33;;;20.60;93.00;;;;;;5002957;28;20450;-84
2023/05/23 08:06:49;;;;;;;11.70;10.50;;;20.60;93.00;;;;;;5002930;28;20512;-84
2023/05/23 08:09:17;;;;;;;13.30;10.77;;;20.60;93.00;;;;;;5018590;28;20490;-85
2023/05/23 08:11:49;;;;;;;12.43;9.20;;;20.60;93.00;;;;;;5018850;28;20432;-84
2023/05/23 08:14:15;;;;;;;12.07;9.70;;;20.60;92.90;;;;;;5018680;28;20453;-84
2023/05/23 08:17:02;;;;;;;12.03;10.17;;;20.60;92.90;;;;;;5031849;28;20435;-83
2023/05/23 08:19:28;;;;;;;11.20;8.50;;;20.60;92.90;;;;;;5002567;28;20898;-84
2023/05/23 08:21:54;;;;;;;12.43;9.67;;;20.50;92.90;;;;;;5002275;28;20882;-83
2023/05/23 08:24:20;;;;;;;10.87;9.23;;;20.50;92.80;;;;;;5018911;28;20449;-83
2023/05/23 08:26:49;;;;;;;10.70;8.00;;;20.50;92.80;;;;;;5018393;28;20934;-85
2023/05/23 08:29:15;;;;;;;10.63;8.40;;;20.50;92.80;;;;;;5018335;28;20476;-84
2023/05/23 08:31:44;;;;;;;10.87;8.20;;;20.50;92.80;;;;;;5001939;28;20939;-84
2023/05/23 08:34:11;;;;;;;12.53;8.37;;;20.50;92.80;;;;;;5019431;28;20421;-84
2023/05/23 08:36:41;;;;;;;10.77;8.33;;;20.50;92.80;;;;;;5025220;28;20424;-89
2023/05/23 08:39:11;;;;;;;9.47;7.07;;;20.50;92.80;;;;;;5026469;28;20428;-83
2023/05/23 08:41:45;;;;;;;8.63;7.43;;;20.50;92.80;;;;;;5038036;28;20459;-83
2023/05/23 08:44:12;;;;;;;9.20;7.07;;;20.50;92.80;;;;;;5037679;28;20464;-83
2023/05/23 08:46:48;;;;;;;8.67;6.90;;;20.40;92.80;;;;;;5038017;28;20413;-84
2023/05/23 08:49:44;;;;;;;14.47;7.83;;;20.40;92.70;;;;;;5021429;28;20481;-84
2023/05/23 08:52:14;;;;;;;9.17;7.57;;;20.40;92.70;;;;;;5021762;28;20464;-85
2023/05/23 08:54:45;;;;;;;10.00;7.70;;;20.40;92.70;;;;;;5021292;28;20476;-84
2023/05/23 08:57:12;;;;;;;10.30;6.13;;;20.40;92.70;;;;;;5021515;28;20755;-84
2023/05/23 08:59:44;;;;;;;8.90;7.70;;;20.40;92.70;;;;;;5037761;28;20412;-83
2023/05/23 09:02:13;;;;;;;11.77;6.40;;;20.40;92.70;;;;;;5021324;28;20421;-84
2023/05/23 09:04:40;;;;;;;8.70;6.77;;;20.40;92.70;;;;;;5021522;28;20490;-83
2023/05/23 09:07:17;;;;;;;8.50;6.37;;;20.40;92.70;;;;;;5021118;28;20491;-83
2023/05/23 09:09:46;;;;;;;11.83;6.90;;;20.40;92.70;;;;;;5021378;28;20459;-83
2023/05/23 09:12:14;;;;;;;8.70;7.20;;;20.30;92.60;;;;;;5037764;28;20431;-83
2023/05/23 09:14:43;;;;;;;11.33;8.00;;;20.30;92.60;;;;;;5037587;28;20423;-84
2023/05/23 09:17:17;;;;;;;11.73;7.67;;;20.30;92.60;;;;;;5037482;28;20810;-84
2023/05/23 09:19:47;;;;;;;7.77;6.93;;;20.30;92.60;;;;;;5037826;28;20412;-84
2023/05/23 09:22:33;;;;;;;8.90;6.80;;;20.30;92.60;;;;;;5037415;28;20406;-84
2023/05/23 09:25:05;;;;;;;9.83;7.40;;;20.30;92.50;;;;;;5037505;28;20419;-84
2023/05/23 09:27:36;;;;;;;10.47;7.80;;;20.30;92.50;;;;;;5037526;28;20398;-84
2023/05/23 09:30:09;;;;;;;8.77;6.80;;;20.30;92.50;;;;;;5037697;28;20454;-83
2023/05/23 09:32:35;;;;;;;9.50;6.43;;;20.30;92.50;;;;;;5037218;28;20504;-83
2023/05/23 09:35:05;;;;;;;8.30;6.50;;;20.30;92.50;;;;;;5037365;28;20440;-84
2023/05/23 09:37:39;;;;;;;11.60;6.37;;;20.30;92.50;;;;;;5020927;28;20758;-85
2023/05/23 09:40:13;;;;;;;7.80;5.80;;;20.30;92.50;;;;;;5021147;28;20765;-84
2023/05/23 09:42:44;;;;;;;10.97;6.83;;;20.30;92.40;;;;;;5020690;28;20507;-84
2023/05/23 09:45:15;;;;;;;10.27;6.67;;;20.30;92.40;;;;;;5022935;28;20505;-84
2023/05/23 09:47:51;;;;;;;12.00;6.00;;;20.30;92.40;;;;;;5025117;28;20726;-83
2023/05/23 09:50:18;;;;;;;11.40;6.23;;;20.30;92.40;;;;;;5041177;28;20479;-84
2023/05/23 09:52:46;;;;;;;8.33;6.07;;;20.20;92.30;;;;;;5025157;28;20439;-84
2023/05/23 09:55:13;;;;;;;8.00;5.53;;;20.20;92.30;;;;;;5041228;28;20423;-84
2023/05/23 09:57:44;;;;;;;9.70;6.13;;;20.20;92.40;;;;;;5041239;28;20838;-85
2023/05/23 10:00:12;;;;;;;8.00;5.93;;;20.20;92.30;;;;;;5041175;28;20426;-84
2023/05/23 10:03:11;;;;;;;8.20;6.13;;;20.20;92.30;;;;;;5041188;28;20786;-85
2023/05/23 10:05:48;;;;;;;8.63;6.07;;;20.20;92.30;;;;;;5041118;28;20788;-84
2023/05/23 10:08:35;;;;;;;11.60;5.87;;;20.20;92.20;;;;;;5024489;28;20448;-85
2023/05/23 10:11:13;;;;;;;10.17;6.50;;;20.20;92.20;;;;;;5040704;28;20434;-84
2023/05/23 10:13:43;;;;;;;10.60;5.80;;;20.20;92.20;;;;;;5040958;28;20431;-84
2023/05/23 10:16:47;;;;;;;11.30;6.27;;;20.20;92.20;;;;;;5024242;28;20466;-83
2023/05/23 10:19:25;;;;;;;6.87;5.73;;;20.10;92.10;;;;;;5023933;28;20427;-84
2023/05/23 10:21:59;;;;;;;10.50;6.07;;;20.10;92.10;;;;;;5058130;28;20413;-86
2023/05/23 10:24:26;;;;;;;7.67;6.67;;;20.10;92.10;;;;;;5024361;28;20412;-84
2023/05/23 10:26:55;;;;;;;8.60;6.53;;;20.10;92.10;;;;;;5058056;28;20526;-83
2023/05/23 10:29:22;;;;;;;8.53;6.53;;;20.10;92.00;;;;;;5040523;28;20486;-84
2023/05/23 10:31:48;;;;;;;7.87;6.23;;;20.10;91.90;;;;;;5040507;28;20579;-84
2023/05/23 10:34:49;;;;;;;8.10;6.03;;;20.10;91.80;;;;;;5024082;28;20530;-85
2023/05/23 10:38:08;;;;;;;7.60;5.27;;;20.10;91.70;;;;;;5035890;28;20930;-84
2023/05/23 10:40:54;;;;;;;7.63;5.90;;;20.10;91.70;;;;;;4971883;28;20430;-84
2023/05/23 10:43:28;;;;;;;7.90;6.50;;;20.10;91.60;;;;;;5040101;28;20508;-85
2023/05/23 10:45:57;;;;;;;8.17;5.60;;;20.10;91.60;;;;;;5024164;28;20423;-84
2023/05/23 10:48:42;;;;;;;9.27;6.20;;;20.10;91.60;;;;;;5023529;28;20432;-84
2023/05/23 10:51:10;;;;;;;7.33;5.40;;;20.10;91.50;;;;;;5023993;28;20430;-84
2023/05/23 10:53:44;;;;;;;7.13;5.60;;;20.10;91.40;;;;;;5040118;28;20412;-83
2023/05/23 10:56:21;;;;;;;9.30;6.00;;;20.10;91.40;;;;;;5023675;28;20920;-87
2023/05/23 10:58:57;;;;;;;7.30;5.40;;;20.10;91.40;;;;;;5040498;28;20741;-86
2023/05/23 11:01:24;;;;;;;6.70;6.10;;;20.10;91.30;;;;;;5023783;28;20459;-85
2023/05/23 11:03:51;;;;;;;7.00;5.50;;;20.10;91.30;;;;;;5023490;28;20528;-85
2023/05/23 11:06:42;;;;;;;6.20;5.60;;;20.10;91.20;;;;;;5057568;28;20507;-84
2023/05/23 11:09:12;;;;;;;8.73;5.90;;;20.10;91.20;;;;;;5059660;28;20466;-83
2023/05/23 11:11:51;;;;;;;6.23;5.47;;;20.10;91.10;;;;;;5059629;28;20523;-85
2023/05/23 11:14:19;;;;;;;9.00;5.60;;;20.10;91.00;;;;;;5059678;28;20400;-85
2023/05/23 11:16:48;;;;;;;7.67;5.30;;;20.10;91.00;;;;;;5059617;28;20788;-85
2023/05/23 11:19:20;;;;;;;7.13;5.73;;;20.10;91.00;;;;;;5042825;28;20944;-85
2023/05/23 11:21:56;;;;;;;7.67;5.47;;;20.10;91.00;;;;;;5043119;28;20757;-85
2023/05/23 11:24:23;;;;;;;5.70;4.93;;;20.10;91.30;;;;;;5026542;28;20544;-86
2023/05/23 11:26:56;;;;;;;8.37;5.43;;;20.20;91.00;;;;;;5059560;28;20443;-86
2023/05/23 11:29:22;;;;;;;8.27;5.80;;;20.10;90.90;;;;;;5059371;28;20541;-84
2023/05/23 11:31:47;;;;;;;8.00;6.57;;;20.10;90.90;;;;;;5042887;28;20504;-87
2023/05/23 11:34:16;;;;;;;5.17;4.67;;;20.10;90.90;;;;;;5026636;28;20561;-85
2023/05/23 11:36:44;;;;;;;7.70;5.17;;;20.10;90.80;;;;;;5042868;28;20415;-84
2023/05/23 11:39:12;;;;;;;7.10;4.70;;;20.10;90.80;;;;;;5042742;28;20433;-86
2023/05/23 11:41:41;;;;;;;5.70;4.53;;;20.10;90.80;;;;;;5059149;28;20422;-86
2023/05/23 11:44:12;;;;;;;9.57;4.87;;;20.10;90.70;;;;;;5059174;28;20454;-85
2023/05/23 11:46:39;;;;;;;5.10;4.60;;;20.10;90.70;;;;;;5042493;28;20533;-86
2023/05/23 11:49:14;;;;;;;6.33;4.13;;;20.10;90.70;;;;;;5059013;28;20468;-85
2023/05/23 11:51:42;;;;;;;8.03;5.07;;;20.10;90.60;;;;;;5042533;28;20465;-86
2023/05/23 11:54:08;;;;;;;9.20;4.70;;;20.10;90.60;;;;;;5059347;28;20567;-85
2023/05/23 11:56:39;;;;;;;5.37;4.47;;;20.10;90.60;;;;;;5042411;28;20724;-85
2023/05/23 11:59:05;;;;;;;6.53;4.60;;;20.10;90.60;;;;;;5042484;28;20702;-85
2023/05/23 12:01:32;;;;;;;8.50;6.00;;;20.10;90.90;;;;;;5042006;28;20425;-85
2023/05/23 12:03:58;;;;;;;10.70;4.37;;;20.10;90.50;;;;;;5042355;28;20430;-84
2023/05/23 12:06:24;;;;;;;5.87;4.97;;;20.10;90.50;;;;;;5023411;28;20457;-83
2023/05/23 12:08:51;;;;;;;7.40;4.03;;;20.10;90.50;;;;;;5021561;28;20311;-84
2023/05/23 12:11:17;;;;;;;6.73;5.00;;;20.10;90.40;;;;;;5038675;28;20469;-84
2023/05/23 12:13:47;;;;;;;6.20;4.30;;;20.10;90.40;;;;;;5022504;28;20444;-84
2023/05/23 12:16:16;;;;;;;6.30;4.20;;;20.10;90.40;;;;;;5022798;28;20517;-83
2023/05/23 12:18:42;;;;;;;9.17;5.40;;;20.10;90.20;;;;;;5038565;28;20565;-83
2023/05/23 12:21:11;;;;;;;7.40;4.40;;;20.10;90.20;;;;;;5038557;28;20477;-84
2023/05/23 12:23:38;;;;;;;7.67;4.40;;;20.10;90.20;;;;;;5055820;28;20412;-84
2023/05/23 12:26:06;;;;;;;7.87;4.30;;;20.10;90.20;;;;;;5021996;28;20462;-86
2023/05/23 12:28:38;;;;;;;6.10;4.80;;;20.10;90.20;;;;;;5055724;28;20501;-85
2023/05/23 12:31:15;;;;;;;5.40;4.60;;;20.10;90.10;;;;;;5021764;28;20432;-84
2023/05/23 12:33:43;;;;;;;6.17;4.63;;;20.10;90.00;;;;;;5055708;28;20426;-84
2023/05/23 12:36:10;;;;;;;6.63;3.90;;;20.10;89.50;;;;;;5038398;28;20438;-84
2023/05/23 12:38:39;;;;;;;5.43;4.33;;;20.20;89.30;;;;;;5021708;28;20442;-85
2023/05/23 12:41:14;;;;;;;5.10;4.60;;;20.20;89.10;;;;;;5021675;28;20489;-84
2023/05/23 12:43:53;;;;;;;13.37;4.80;;;20.20;89.20;;;;;;5021833;28;20827;-83
2023/05/23 12:46:23;;;;;;;7.77;4.50;;;20.20;89.10;;;;;;5022061;28;20431;-84
2023/05/23 12:48:52;;;;;;;7.60;4.57;;;20.20;89.20;;;;;;5037833;28;20471;-83
2023/05/23 12:51:19;;;;;;;7.17;4.60;;;20.30;89.10;;;;;;5021694;28;20494;-87
2023/05/23 12:53:46;;;;;;;6.50;4.63;;;20.20;88.70;;;;;;5021528;28;20419;-84
2023/05/23 12:56:19;;;;;;;8.33;4.70;;;20.30;88.60;;;;;;5037997;28;20439;-85
2023/05/23 12:58:45;;;;;;;8.63;4.67;;;20.30;88.30;;;;;;5005189;28;21042;-85
2023/05/23 13:01:14;;;;;;;9.23;4.40;;;20.30;87.70;;;;;;5021374;28;20475;-85
2023/05/23 13:03:40;;;;;;;5.67;4.43;;;20.30;87.70;;;;;;5037990;28;20751;-86
2023/05/23 13:06:08;;;;;;;5.70;4.30;;;20.40;87.90;;;;;;5037640;28;20465;-85
2023/05/23 13:08:34;;;;;;;11.30;4.70;;;20.30;87.50;;;;;;5038088;28;20837;-85
2023/05/23 13:11:00;;;;;;;9.83;4.67;;;20.30;87.20;;;;;;5037559;28;20470;-88